Time;durP1;ratioP1;P1;durP2;ratioP2;P2;SDS_P1;SDS_P2;PMS_P1;PMS_P2;Temp;Humidity;BMP_temperature;BMP_pressure;BME280_temperature;BME280_humidity;BME280_pressure;Samples;Min_cycle;Max_cycle;Signal;HPM_P1;HPM_P2
2022/04/06 00:00:17;;;;;;;4.30;2.25;;;7.70;99.90;;;;;;5091379;28;20039;-70
2022/04/06 00:03:21;;;;;;;5.13;2.00;;;7.70;99.90;;;;;;5090865;28;20035;-69
2022/04/06 00:06:25;;;;;;;3.63;2.08;;;7.60;99.90;;;;;;5090420;28;20387;-69
2022/04/06 00:09:29;;;;;;;6.20;2.25;;;7.50;99.90;;;;;;5090771;28;20047;-69
2022/04/06 00:12:35;;;;;;;13.98;5.93;;;7.50;99.90;;;;;;5090798;28;20051;-69
2022/04/06 00:15:39;;;;;;;5.75;2.40;;;7.50;99.90;;;;;;5090423;28;20034;-69
2022/04/06 00:18:43;;;;;;;10.25;5.40;;;7.50;99.90;;;;;;5089592;28;20040;-69
2022/04/06 00:21:48;;;;;;;4.40;2.47;;;7.30;99.90;;;;;;5090447;28;20043;-69
2022/04/06 00:24:53;;;;;;;5.68;2.20;;;7.10;99.90;;;;;;5090727;28;20051;-69
2022/04/06 00:27:56;;;;;;;4.50;2.50;;;7.00;99.90;;;;;;5090031;28;20399;-69
2022/04/06 00:31:02;;;;;;;9.55;4.72;;;6.80;99.90;;;;;;5090207;28;20399;-69
2022/04/06 00:34:06;;;;;;;7.45;3.38;;;6.70;99.90;;;;;;5090770;28;20036;-69
2022/04/06 00:37:10;;;;;;;8.68;3.88;;;6.60;99.90;;;;;;5089986;28;20395;-69
2022/04/06 00:40:14;;;;;;;7.63;4.28;;;6.60;99.90;;;;;;5090226;28;20040;-69
2022/04/06 00:43:18;;;;;;;8.73;4.78;;;6.50;99.90;;;;;;5090291;28;20043;-69
2022/04/06 00:46:22;;;;;;;10.65;4.95;;;6.50;99.90;;;;;;5090020;28;20043;-69
2022/04/06 00:49:26;;;;;;;9.02;4.45;;;6.50;99.90;;;;;;5090039;28;20502;-69
2022/04/06 00:52:30;;;;;;;5.32;3.20;;;6.50;99.90;;;;;;5090376;28;20395;-69
2022/04/06 00:55:37;;;;;;;5.90;3.22;;;6.40;99.90;;;;;;5090464;28;20051;-69
2022/04/06 00:58:41;;;;;;;5.60;3.70;;;6.40;99.90;;;;;;5092463;28;20051;-69
2022/04/06 01:01:46;;;;;;;8.07;4.20;;;6.40;99.90;;;;;;5094462;28;20043;-69
2022/04/06 01:04:50;;;;;;;38.20;16.70;;;6.40;99.90;;;;;;5094466;28;20040;-69
2022/04/06 01:07:56;;;;;;;8.05;5.22;;;6.40;99.90;;;;;;5093921;28;20387;-69
2022/04/06 01:11:00;;;;;;;8.95;5.18;;;6.40;99.90;;;;;;5094662;28;20032;-69
2022/04/06 01:14:06;;;;;;;10.15;6.10;;;6.30;99.90;;;;;;5094498;28;20055;-69
2022/04/06 01:17:10;;;;;;;8.45;5.20;;;6.20;99.90;;;;;;5093851;28;20047;-69
2022/04/06 01:20:15;;;;;;;11.90;6.90;;;6.10;99.90;;;;;;5093002;28;20049;-69
2022/04/06 01:23:18;;;;;;;12.77;6.22;;;6.10;99.90;;;;;;5093751;28;20040;-69
2022/04/06 01:26:23;;;;;;;11.35;6.35;;;6.00;99.90;;;;;;5093676;28;20047;-69
2022/04/06 01:29:27;;;;;;;7.88;4.57;;;6.00;99.90;;;;;;5093847;28;20043;-69
2022/04/06 01:32:32;;;;;;;8.35;4.97;;;6.00;99.90;;;;;;5093587;28;20403;-69
2022/04/06 01:35:38;;;;;;;8.75;3.97;;;5.90;99.90;;;;;;5093560;28;20047;-69
2022/04/06 01:38:42;;;;;;;7.57;4.55;;;6.00;99.90;;;;;;5093442;28;20045;-69
2022/04/06 01:41:46;;;;;;;10.75;5.97;;;6.00;99.90;;;;;;5093517;28;20040;-69
2022/04/06 01:44:51;;;;;;;8.85;5.03;;;5.90;99.90;;;;;;5093409;28;20509;-69
2022/04/06 01:47:55;;;;;;;8.95;4.60;;;5.90;99.90;;;;;;5093248;28;20051;-69
2022/04/06 01:54:21;;;;;;;12.95;5.03;;;5.90;99.90;;;;;;5091794;28;20052;-69
2022/04/06 01:57:25;;;;;;;10.00;5.50;;;5.90;99.90;;;;;;5092617;28;20059;-69
2022/04/06 02:00:29;;;;;;;12.23;6.72;;;5.90;99.90;;;;;;5092273;28;20043;-69
2022/04/06 02:03:33;;;;;;;11.82;6.50;;;5.80;99.90;;;;;;5093105;28;20039;-69
2022/04/06 02:06:37;;;;;;;11.00;6.20;;;5.80;99.90;;;;;;5093128;28;20043;-69
2022/04/06 02:09:41;;;;;;;15.10;9.27;;;5.80;99.90;;;;;;5091759;28;20618;-69
2022/04/06 02:12:46;;;;;;;22.08;13.13;;;5.80;99.90;;;;;;5093128;28;20387;-69
2022/04/06 02:15:49;;;;;;;12.00;7.80;;;5.70;99.90;;;;;;5092689;28;20063;-69
2022/04/06 02:18:53;;;;;;;11.20;6.85;;;5.70;99.90;;;;;;5092054;28;20051;-69
2022/04/06 02:21:58;;;;;;;13.48;6.20;;;5.60;99.90;;;;;;5092756;28;20036;-69
2022/04/06 02:25:02;;;;;;;27.38;12.38;;;5.60;99.90;;;;;;5092978;28;20047;-69
2022/04/06 02:28:06;;;;;;;63.50;23.83;;;5.50;99.90;;;;;;5092146;28;20055;-69
2022/04/06 02:31:11;;;;;;;32.20;13.77;;;5.50;99.90;;;;;;5091420;28;20395;-69
2022/04/06 02:34:15;;;;;;;16.40;8.07;;;5.40;99.90;;;;;;5092728;28;20063;-69
2022/04/06 02:37:19;;;;;;;12.15;7.15;;;5.20;99.90;;;;;;5092088;28;20062;-69
2022/04/06 02:40:23;;;;;;;15.18;8.18;;;5.10;99.90;;;;;;5092035;28;20039;-69
2022/04/06 02:43:27;;;;;;;11.88;7.82;;;5.00;99.90;;;;;;5092084;28;20051;-69
2022/04/06 02:46:32;;;;;;;14.93;8.18;;;4.90;99.90;;;;;;5091682;28;20055;-69
2022/04/06 02:49:36;;;;;;;12.65;7.72;;;4.80;99.90;;;;;;5092148;28;20046;-69
2022/04/06 02:52:41;;;;;;;11.18;7.63;;;4.70;99.90;;;;;;5091819;28;20619;-69
2022/04/06 02:55:44;;;;;;;13.05;7.78;;;4.70;99.90;;;;;;5092021;28;20050;-69
2022/04/06 02:58:48;;;;;;;11.27;7.50;;;4.80;99.90;;;;;;5092174;28;20046;-69
2022/04/06 03:01:52;;;;;;;9.07;6.85;;;4.80;99.90;;;;;;5091484;28;20051;-69
2022/04/06 03:04:56;;;;;;;13.52;7.60;;;4.80;99.90;;;;;;5091794;28;20034;-69
2022/04/06 03:08:00;;;;;;;11.18;6.82;;;4.80;99.90;;;;;;5091516;28;20039;-69
2022/04/06 03:11:04;;;;;;;13.93;5.38;;;4.80;99.90;;;;;;5091675;28;20466;-69
2022/04/06 03:14:09;;;;;;;12.30;4.53;;;4.80;99.90;;;;;;5091527;28;20043;-69
2022/04/06 03:17:16;;;;;;;5.03;2.97;;;4.80;99.90;;;;;;5091022;28;20036;-69
2022/04/06 03:20:20;;;;;;;6.85;3.45;;;4.90;99.90;;;;;;5090558;28;20039;-69
2022/04/06 03:23:24;;;;;;;7.40;3.08;;;4.90;99.90;;;;;;5091495;28;20049;-69
2022/04/06 03:26:28;;;;;;;4.38;2.60;;;4.90;99.90;;;;;;5090862;28;20036;-69
2022/04/06 03:29:32;;;;;;;5.47;2.97;;;5.00;99.90;;;;;;5091205;28;20040;-69
2022/04/06 03:32:37;;;;;;;10.00;3.30;;;4.90;99.90;;;;;;5091431;28;20048;-69
2022/04/06 03:35:42;;;;;;;6.70;4.32;;;4.90;99.90;;;;;;5091425;28;20051;-69
2022/04/06 03:38:46;;;;;;;6.90;3.85;;;4.90;99.90;;;;;;5091029;28;20048;-69
2022/04/06 03:41:50;;;;;;;6.32;3.58;;;4.90;99.90;;;;;;5091167;28;20387;-69
2022/04/06 03:44:54;;;;;;;7.05;3.85;;;4.90;99.90;;;;;;5091020;28;20040;-69
2022/04/06 03:47:58;;;;;;;5.78;3.88;;;4.90;99.90;;;;;;5090398;28;20039;-69
2022/04/06 03:51:03;;;;;;;8.10;3.95;;;4.90;99.90;;;;;;5090119;28;20031;-69
2022/04/06 03:54:07;;;;;;;7.57;4.45;;;4.90;99.90;;;;;;5090747;28;20062;-69
2022/04/06 03:57:10;;;;;;;7.18;4.45;;;4.90;99.90;;;;;;5090198;28;20032;-69
2022/04/06 04:00:15;;;;;;;6.30;4.53;;;4.80;99.90;;;;;;5090760;28;20062;-69
2022/04/06 04:03:19;;;;;;;8.57;4.78;;;4.80;99.90;;;;;;5090379;28;20043;-69
2022/04/06 04:06:23;;;;;;;8.63;5.28;;;4.80;99.90;;;;;;5090110;28;20241;-69
2022/04/06 04:09:29;;;;;;;7.63;4.13;;;4.70;99.90;;;;;;5090537;28;20049;-69
2022/04/06 04:12:34;;;;;;;7.68;4.95;;;4.60;99.90;;;;;;5090049;28;20036;-69
2022/04/06 04:15:38;;;;;;;7.85;5.15;;;4.60;99.90;;;;;;5090480;28;20039;-69
2022/04/06 04:18:42;;;;;;;11.80;4.80;;;4.50;99.90;;;;;;5090232;28;20039;-69
2022/04/06 04:21:46;;;;;;;8.77;4.75;;;4.40;99.90;;;;;;5090258;28;20043;-69
2022/04/06 04:24:50;;;;;;;11.82;5.60;;;4.30;99.90;;;;;;5090405;28;20504;-69
2022/04/06 04:27:54;;;;;;;9.55;5.25;;;4.30;99.90;;;;;;5089165;28;20039;-69
2022/04/06 04:30:58;;;;;;;9.45;5.43;;;4.30;99.90;;;;;;5090038;28;20036;-69
2022/04/06 04:34:03;;;;;;;15.80;7.97;;;4.20;99.90;;;;;;5088562;28;20039;-69
2022/04/06 04:37:07;;;;;;;12.82;7.85;;;4.10;99.90;;;;;;5089920;28;20081;-69
2022/04/06 04:40:11;;;;;;;11.52;7.50;;;4.10;99.90;;;;;;5090194;28;20110;-69
2022/04/06 04:43:15;;;;;;;9.20;7.10;;;3.90;99.90;;;;;;5090101;28;20517;-69
2022/04/06 04:46:20;;;;;;;9.05;6.28;;;3.80;99.90;;;;;;5089830;28;20383;-69
2022/04/06 04:49:24;;;;;;;8.25;5.20;;;3.70;99.90;;;;;;5090117;28;20043;-69
2022/04/06 04:52:28;;;;;;;12.05;6.75;;;3.60;99.90;;;;;;5089773;28;20039;-69
2022/04/06 04:55:33;;;;;;;12.43;6.85;;;3.60;99.90;;;;;;5089872;28;20055;-69
2022/04/06 04:58:37;;;;;;;12.65;7.43;;;3.60;99.90;;;;;;5089060;28;20051;-69
2022/04/06 05:01:41;;;;;;;11.10;5.75;;;3.60;99.90;;;;;;5089999;28;20035;-69
2022/04/06 05:04:45;;;;;;;8.45;5.13;;;3.60;99.90;;;;;;5089908;28;20043;-69
2022/04/06 05:07:49;;;;;;;8.98;4.15;;;3.70;99.90;;;;;;5089381;28;20043;-69
2022/04/06 05:10:53;;;;;;;9.07;4.00;;;3.70;99.90;;;;;;5089881;28;20036;-69
2022/04/06 05:13:57;;;;;;;10.55;5.35;;;3.80;99.90;;;;;;5089505;28;20038;-69
2022/04/06 05:17:01;;;;;;;8.80;5.43;;;3.90;99.90;;;;;;5090449;28;20036;-69
2022/04/06 05:20:07;;;;;;;11.73;7.15;;;4.00;99.90;;;;;;5089678;28;20057;-69
2022/04/06 05:23:11;;;;;;;20.08;10.68;;;4.10;99.90;;;;;;5089892;28;20355;-69
2022/04/06 05:26:15;;;;;;;28.45;13.05;;;4.20;99.90;;;;;;5089527;28;20352;-69
2022/04/06 05:29:19;;;;;;;25.63;12.38;;;4.20;99.90;;;;;;5089521;28;20047;-69
2022/04/06 05:32:23;;;;;;;18.88;11.18;;;4.30;99.90;;;;;;5089874;28;20047;-69
2022/04/06 05:35:28;;;;;;;19.30;10.55;;;4.30;99.90;;;;;;5090015;28;20039;-69
2022/04/06 05:38:34;;;;;;;16.10;9.40;;;4.60;99.90;;;;;;5089961;28;20401;-69
2022/04/06 05:41:38;;;;;;;15.35;8.65;;;7.20;99.90;;;;;;5089494;28;20086;-69
2022/04/06 05:44:43;;;;;;;15.75;8.85;;;10.40;99.90;;;;;;5091977;28;20052;-69
2022/04/06 05:47:47;;;;;;;14.07;7.95;;;13.10;99.90;;;;;;5093234;28;20506;-69
2022/04/06 05:50:51;;;;;;;14.38;7.43;;;15.00;99.90;;;;;;5093481;28;20391;-69
2022/04/06 05:53:55;;;;;;;15.32;7.30;;;16.10;99.40;;;;;;5093388;28;20043;-69
2022/04/06 05:56:59;;;;;;;16.10;7.65;;;17.30;97.80;;;;;;5093070;28;20047;-70
2022/04/06 06:00:06;;;;;;;13.95;7.93;;;18.80;96.10;;;;;;5093312;28;20062;-70
2022/04/06 06:03:15;;;;;;;12.63;7.88;;;19.30;94.30;;;;;;5097913;28;20031;-70
2022/04/06 06:06:19;;;;;;;11.05;7.28;;;20.30;92.00;;;;;;5102489;28;20073;-69
2022/04/06 06:09:23;;;;;;;12.45;7.63;;;20.80;89.80;;;;;;5107821;28;20050;-70
2022/04/06 06:12:27;;;;;;;16.02;8.13;;;19.70;89.30;;;;;;5105416;28;20489;-70
2022/04/06 06:15:31;;;;;;;30.75;12.77;;;17.80;90.20;;;;;;5092579;28;20063;-70
2022/04/06 06:18:35;;;;;;;21.77;13.18;;;16.50;91.50;;;;;;5106831;28;20050;-70
2022/04/06 06:21:39;;;;;;;15.43;8.80;;;16.70;91.60;;;;;;5107643;28;20035;-70
2022/04/06 06:24:44;;;;;;;13.93;8.73;;;18.40;90.90;;;;;;5109027;28;20050;-70
2022/04/06 06:27:48;;;;;;;12.55;7.03;;;16.90;90.00;;;;;;5105854;28;20489;-70
2022/04/06 06:30:53;;;;;;;13.02;7.70;;;17.10;91.80;;;;;;5109827;28;20066;-70
2022/04/06 06:33:58;;;;;;;12.00;7.45;;;18.70;90.10;;;;;;5103989;28;20481;-70
2022/04/06 06:37:03;;;;;;;11.18;7.18;;;19.70;86.70;;;;;;5108204;28;21070;-70
2022/04/06 06:40:07;;;;;;;12.80;7.13;;;20.10;85.50;;;;;;5107719;28;20157;-70
2022/04/06 06:43:11;;;;;;;11.55;6.60;;;20.90;83.50;;;;;;5102238;28;20047;-70
2022/04/06 06:46:19;;;;;;;13.65;6.65;;;20.50;82.40;;;;;;5109652;28;20039;-70
2022/04/06 06:49:23;;;;;;;8.90;6.05;;;20.20;81.30;;;;;;5108737;28;20390;-70
2022/04/06 06:52:27;;;;;;;14.43;6.65;;;20.30;82.00;;;;;;5105541;28;20055;-70
2022/04/06 06:55:30;;;;;;;10.55;6.03;;;19.40;81.10;;;;;;5108057;28;20051;-70
2022/04/06 06:58:35;;;;;;;10.35;6.15;;;18.10;84.80;;;;;;5106891;28;20564;-70
2022/04/06 07:01:39;;;;;;;13.98;6.07;;;18.40;86.50;;;;;;5100715;28;20035;-70
2022/04/06 07:04:43;;;;;;;11.02;6.18;;;19.20;86.30;;;;;;5105017;28;20051;-70
2022/04/06 07:07:49;;;;;;;8.25;6.05;;;19.20;84.40;;;;;;5101926;28;20043;-70
2022/04/06 07:10:53;;;;;;;8.38;5.05;;;17.10;87.00;;;;;;5108849;28;20051;-68
2022/04/06 07:13:57;;;;;;;9.63;5.57;;;17.40;87.40;;;;;;5106027;28;20485;-68
2022/04/06 07:17:01;;;;;;;10.05;5.45;;;15.70;87.10;;;;;;5110608;28;20058;-68
2022/04/06 07:20:06;;;;;;;8.60;5.45;;;15.50;88.50;;;;;;5108214;28;20038;-70
2022/04/06 07:23:11;;;;;;;11.07;5.45;;;17.50;86.30;;;;;;5111057;28;20042;-70
2022/04/06 07:26:16;;;;;;;8.07;4.93;;;18.00;84.60;;;;;;5108297;28;20394;-70
2022/04/06 07:29:21;;;;;;;8.30;4.82;;;19.20;83.80;;;;;;5102610;28;20043;-70
2022/04/06 07:32:25;;;;;;;8.73;4.88;;;21.40;79.30;;;;;;5106957;28;20038;-70
2022/04/06 07:35:29;;;;;;;8.27;4.43;;;22.70;75.90;;;;;;5108462;28;20421;-71
2022/04/06 07:38:33;;;;;;;5.80;4.25;;;22.90;73.90;;;;;;5109576;28;20050;-70
2022/04/06 07:41:38;;;;;;;11.50;6.75;;;22.30;73.00;;;;;;5107546;28;20371;-70
2022/04/06 07:44:42;;;;;;;16.23;8.15;;;21.90;74.40;;;;;;5106753;28;20055;-70
2022/04/06 07:47:48;;;;;;;12.65;5.50;;;19.70;76.00;;;;;;5100149;28;20050;-70
2022/04/06 07:50:52;;;;;;;8.77;4.63;;;19.80;77.80;;;;;;5105326;28;20051;-71
2022/04/06 07:53:56;;;;;;;7.68;5.57;;;20.90;76.70;;;;;;5106061;28;20038;-71
2022/04/06 07:57:00;;;;;;;11.43;7.00;;;20.90;74.90;;;;;;5105159;28;20050;-69
2022/04/06 08:00:09;;;;;;;10.40;5.80;;;21.90;75.00;;;;;;5105561;28;20039;-70
2022/04/06 08:03:14;;;;;;;10.35;5.47;;;21.30;73.10;;;;;;5106714;28;20038;-70
2022/04/06 08:06:18;;;;;;;8.32;5.22;;;21.30;76.90;;;;;;5106417;28;20039;-71
2022/04/06 08:09:22;;;;;;;6.72;4.65;;;23.00;74.10;;;;;;5102991;28;20038;-72
2022/04/06 08:12:26;;;;;;;7.90;4.75;;;24.60;71.10;;;;;;5100839;28;20043;-71
2022/04/06 08:15:30;;;;;;;7.45;4.93;;;25.90;69.50;;;;;;5108343;28;20046;-72
2022/04/06 08:18:34;;;;;;;7.97;4.55;;;25.00;66.80;;;;;;5105596;28;20055;-72
2022/04/06 08:21:38;;;;;;;10.52;6.50;;;26.20;67.40;;;;;;5099306;28;20035;-71
2022/04/06 08:24:46;;;;;;;8.90;5.60;;;23.70;66.60;;;;;;5103776;28;20110;-72
2022/04/06 08:27:50;;;;;;;8.18;5.43;;;23.70;67.50;;;;;;5104601;28;20034;-71
2022/04/06 08:31:01;;;;;;;9.82;5.85;;;25.40;67.60;;;;;;5098944;28;20054;-71
2022/04/06 08:34:06;;;;;;;;;;;27.50;66.70;;;;;;5101925;28;20043;-71
2022/04/06 08:37:10;;;;;;;11.80;6.47;;;29.00;65.10;;;;;;5103525;28;19912;-70
2022/04/06 08:40:17;;;;;;;12.98;7.55;;;30.00;64.30;;;;;;5102783;28;20070;-70
2022/04/06 08:43:22;;;;;;;13.65;8.30;;;29.20;62.60;;;;;;5103685;28;20038;-71
2022/04/06 08:46:31;;;;;;;8.43;6.47;;;28.90;62.80;;;;;;5102408;28;20042;-71
2022/04/06 08:49:36;;;;;;;7.85;6.03;;;29.20;61.60;;;;;;5104029;28;20038;-71
2022/04/06 08:52:41;;;;;;;8.82;5.75;;;28.30;60.80;;;;;;5105003;28;20039;-70
2022/04/06 08:55:45;;;;;;;9.77;5.45;;;26.00;62.00;;;;;;5107897;28;20042;-70
2022/04/06 08:58:49;;;;;;;11.05;5.13;;;25.80;65.00;;;;;;5109305;28;20102;-71
2022/04/06 09:01:53;;;;;;;8.25;5.47;;;26.40;64.30;;;;;;5096090;28;20498;-70
2022/04/06 09:04:58;;;;;;;10.80;5.90;;;26.50;64.00;;;;;;5106097;28;20050;-71
2022/04/06 09:08:03;;;;;;;8.23;5.88;;;27.30;63.50;;;;;;5098966;28;20394;-70
2022/04/06 09:11:13;;;;;;;8.65;5.00;;;28.20;63.00;;;;;;5102328;28;20506;-70
2022/04/06 09:14:29;;;;;;;6.50;4.57;;;29.30;61.40;;;;;;5102526;28;20043;-71
2022/04/06 09:17:46;;;;;;;7.97;5.13;;;30.10;61.10;;;;;;5100435;28;20386;-71
2022/04/06 09:21:00;;;;;;;8.20;4.80;;;30.10;58.50;;;;;;5099219;28;20046;-71
2022/04/06 09:24:04;;;;;;;8.40;5.32;;;28.60;60.30;;;;;;5106551;28;20379;-71
2022/04/06 09:27:10;;;;;;;9.82;5.78;;;27.10;61.00;;;;;;5107426;28;20046;-73
2022/04/06 09:30:14;;;;;;;6.68;5.32;;;25.90;61.20;;;;;;5107322;28;20079;-70
2022/04/06 09:33:20;;;;;;;9.23;5.30;;;24.00;63.70;;;;;;5107988;28;20043;-71
2022/04/06 09:36:28;;;;;;;8.68;5.25;;;22.50;65.20;;;;;;5108310;28;20043;-71
2022/04/06 09:39:43;;;;;;;10.48;4.75;;;22.90;65.20;;;;;;5106746;28;20050;-74
2022/04/06 09:42:51;;;;;;;7.47;4.95;;;21.00;67.70;;;;;;5107742;28;20042;-74
2022/04/06 09:49:24;;;;;;;9.65;5.28;;;21.30;68.40;;;;;;5111990;28;20038;-74
2022/04/06 09:52:30;;;;;;;9.50;5.05;;;21.00;70.00;;;;;;5107047;28;20043;-74
2022/04/06 09:55:36;;;;;;;12.15;5.97;;;21.90;68.90;;;;;;5099802;28;20039;-73
2022/04/06 09:58:41;;;;;;;12.57;7.00;;;22.10;68.40;;;;;;5105996;28;20034;-74
2022/04/06 10:01:48;;;;;;;10.65;6.40;;;23.50;66.20;;;;;;5109591;28;20047;-74
2022/04/06 10:04:53;;;;;;;10.82;6.35;;;23.30;66.90;;;;;;5110439;28;20035;-73
2022/04/06 10:08:08;;;;;;;8.30;6.05;;;24.30;65.90;;;;;;5105923;28;20035;-71
2022/04/06 10:11:18;;;;;;;8.30;5.88;;;24.80;65.70;;;;;;5110479;28;20516;-75
2022/04/06 10:14:24;;;;;;;11.63;5.63;;;22.50;64.40;;;;;;5105212;28;20038;-70
2022/04/06 10:17:29;;;;;;;9.25;5.47;;;22.40;65.70;;;;;;5105584;28;20034;-71
2022/04/06 10:20:48;;;;;;;8.30;5.65;;;23.80;67.00;;;;;;5108843;28;20058;-74
2022/04/06 10:24:19;;;;;;;6.93;5.00;;;23.50;65.80;;;;;;5113136;28;20054;-74
2022/04/06 10:27:57;;;;;;;;;;;27.70;63.40;;;;;;5107118;28;20043;-72
2022/04/06 10:31:30;;;;;;;9.52;4.97;;;28.90;60.50;;;;;;5083327;28;19912;-71
2022/04/06 10:34:37;;;;;;;8.40;4.10;;;30.70;58.30;;;;;;5111850;28;20038;-72
2022/04/06 10:38:07;;;;;;;6.82;3.83;;;25.10;59.70;;;;;;5105977;28;20454;-74
2022/04/06 10:41:11;;;;;;;10.60;3.90;;;27.10;61.40;;;;;;5110176;28;20382;-74
2022/04/06 10:44:41;;;;;;;6.30;3.25;;;29.00;60.00;;;;;;5106090;28;20047;-72
2022/04/06 10:48:25;;;;;;;4.75;2.60;;;30.30;56.50;;;;;;5108356;28;20035;-74
2022/04/06 10:51:33;;;;;;;6.47;2.97;;;28.20;58.80;;;;;;5106352;28;20469;-74
2022/04/06 10:54:41;;;;;;;3.97;2.40;;;26.20;58.00;;;;;;5106540;28;20047;-70
2022/04/06 10:58:04;;;;;;;4.63;2.53;;;25.60;61.00;;;;;;5106856;28;20063;-73
2022/04/06 11:01:18;;;;;;;7.35;2.55;;;26.70;57.90;;;;;;5106825;28;20031;-74
2022/04/06 11:04:23;;;;;;;4.20;2.35;;;24.10;58.70;;;;;;5107558;28;20374;-73
2022/04/06 11:11:45;;;;;;;6.30;2.65;;;26.20;55.80;;;;;;5102219;28;20042;-73
2022/04/06 11:15:10;;;;;;;4.00;2.08;;;23.90;59.30;;;;;;5106047;28;20035;-73
2022/04/06 11:18:43;;;;;;;4.45;2.70;;;24.30;59.50;;;;;;5106277;28;20501;-73
2022/04/06 11:21:53;;;;;;;6.57;2.80;;;24.90;59.70;;;;;;5107484;28;20051;-72
2022/04/06 11:24:59;;;;;;;7.35;2.97;;;24.20;59.50;;;;;;5104850;28;20042;-72
2022/04/06 11:28:09;;;;;;;3.92;2.60;;;20.60;61.20;;;;;;5109340;28;20050;-73
2022/04/06 11:31:14;;;;;;;3.78;2.42;;;21.00;63.70;;;;;;5110081;28;20490;-73
2022/04/06 11:34:32;;;;;;;5.07;2.88;;;21.80;60.70;;;;;;5105129;28;20348;-72
2022/04/06 11:37:49;;;;;;;7.13;2.85;;;21.80;62.50;;;;;;5104395;28;20050;-73
2022/04/06 11:40:56;;;;;;;5.88;3.20;;;19.50;66.40;;;;;;5106099;28;20054;-73
2022/04/06 11:44:01;;;;;;;6.25;3.40;;;20.80;64.10;;;;;;5101069;28;20131;-74
2022/04/06 11:47:05;;;;;;;7.20;3.05;;;21.80;64.20;;;;;;5098636;28;20309;-73
2022/04/06 11:50:14;;;;;;;5.57;3.33;;;20.00;66.40;;;;;;5099380;28;20068;-74
2022/04/06 11:53:21;;;;;;;6.50;3.03;;;18.90;70.60;;;;;;5108142;28;20030;-75
2022/04/06 11:56:26;;;;;;;6.40;2.95;;;20.60;67.10;;;;;;5107967;28;20034;-74
2022/04/06 11:59:31;;;;;;;5.30;3.00;;;21.30;64.90;;;;;;5104517;28;20410;-73
2022/04/06 12:02:56;;;;;;;5.57;3.20;;;22.20;62.70;;;;;;5088329;28;20043;-73
2022/04/06 12:06:01;;;;;;;7.82;3.28;;;20.00;66.80;;;;;;5100120;28;20054;-74
2022/04/06 12:09:08;;;;;;;5.97;3.30;;;19.60;67.20;;;;;;5109722;28;20042;-72
2022/04/06 12:12:13;;;;;;;4.95;3.10;;;19.00;68.30;;;;;;5091195;28;20039;-74
2022/04/06 12:15:17;;;;;;;5.53;3.00;;;18.40;67.00;;;;;;5102155;28;20034;-74
2022/04/06 12:18:23;;;;;;;7.55;2.83;;;19.50;66.60;;;;;;5109980;28;20035;-73
2022/04/06 12:21:29;;;;;;;7.03;3.00;;;19.70;65.10;;;;;;5110489;28;20047;-72
2022/04/06 12:24:43;;;;;;;4.75;3.03;;;18.70;66.90;;;;;;5111079;28;20058;-73
2022/04/06 12:27:47;;;;;;;12.25;3.67;;;18.40;67.60;;;;;;5110152;28;20058;-74
2022/04/06 12:30:54;;;;;;;6.63;3.22;;;18.20;69.60;;;;;;5110498;28;20393;-72
2022/04/06 12:33:58;;;;;;;5.90;3.40;;;17.50;68.60;;;;;;5109561;28;20042;-73
2022/04/06 12:40:27;;;;;;;6.85;3.38;;;17.00;69.30;;;;;;5105425;28;20039;-73
2022/04/06 12:43:30;;;;;;;6.13;2.85;;;17.00;68.80;;;;;;5106596;28;20058;-73
2022/04/06 12:46:35;;;;;;;8.50;2.90;;;17.30;69.90;;;;;;5104523;28;20067;-73
2022/04/06 12:49:42;;;;;;;6.07;3.33;;;17.60;68.60;;;;;;5105959;28;20046;-73
2022/04/06 12:53:08;;;;;;;9.93;3.10;;;17.20;70.40;;;;;;5101084;28;20047;-74
2022/04/06 12:56:12;;;;;;;6.15;3.50;;;17.60;70.50;;;;;;5094180;28;20332;-73
2022/04/06 12:59:17;;;;;;;8.45;4.47;;;17.30;71.20;;;;;;5106915;28;20042;-73
2022/04/06 13:02:48;;;;;;;170.13;67.63;;;17.00;72.30;;;;;;5102849;28;20046;-73
2022/04/06 13:05:52;;;;;;;9.95;5.70;;;16.40;73.20;;;;;;5101896;28;20065;-74
2022/04/06 13:08:56;;;;;;;12.25;7.68;;;16.80;75.00;;;;;;5102548;28;20076;-73
2022/04/06 13:12:00;;;;;;;8.75;5.22;;;17.10;74.00;;;;;;5104825;28;20406;-73
2022/04/06 13:15:06;;;;;;;8.45;4.35;;;17.00;73.20;;;;;;5106945;28;20493;-73
2022/04/06 13:18:10;;;;;;;6.93;3.63;;;16.60;73.80;;;;;;5101829;28;20506;-73
2022/04/06 13:21:14;;;;;;;4.82;3.30;;;16.30;73.60;;;;;;5106385;28;20046;-73
2022/04/06 13:24:20;;;;;;;7.57;3.83;;;16.50;75.10;;;;;;5106581;28;20039;-72
2022/04/06 13:27:24;;;;;;;5.95;3.40;;;16.50;76.10;;;;;;5093868;28;20058;-73
2022/04/06 13:30:28;;;;;;;5.32;3.20;;;16.10;76.80;;;;;;5090920;28;20046;-72
2022/04/06 13:33:32;;;;;;;9.25;4.20;;;16.20;77.30;;;;;;5103308;28;20034;-72
2022/04/06 13:36:36;;;;;;;6.50;3.58;;;16.10;77.30;;;;;;5100645;28;20050;-73
2022/04/06 13:39:40;;;;;;;9.40;3.53;;;16.20;77.40;;;;;;5107457;28;20046;-72
2022/04/06 13:42:44;;;;;;;7.78;3.72;;;15.90;78.90;;;;;;5107602;28;20039;-72
2022/04/06 13:45:49;;;;;;;13.73;4.15;;;15.80;79.40;;;;;;5104041;28;20039;-73
2022/04/06 13:48:56;;;;;;;7.57;4.35;;;15.80;78.50;;;;;;5091632;28;20446;-72
2022/04/06 13:52:03;;;;;;;9.93;4.25;;;15.70;79.40;;;;;;5101057;28;20043;-72
2022/04/06 13:55:09;;;;;;;7.65;3.92;;;15.60;79.20;;;;;;5098995;28;20042;-72
2022/04/06 13:58:14;;;;;;;10.98;4.28;;;15.50;81.00;;;;;;5104795;28;20035;-72
2022/04/06 14:01:17;;;;;;;7.07;3.55;;;15.50;80.00;;;;;;5108913;28;20042;-72
2022/04/06 14:04:22;;;;;;;11.95;3.55;;;15.40;75.30;;;;;;5107393;28;20050;-73
2022/04/06 14:07:27;;;;;;;7.65;4.22;;;15.30;78.00;;;;;;5097617;28;20054;-73
2022/04/06 14:10:31;;;;;;;15.38;4.43;;;15.10;82.40;;;;;;5108856;28;20111;-72
2022/04/06 14:13:34;;;;;;;11.77;5.40;;;14.80;85.20;;;;;;5107786;28;20039;-74
2022/04/06 14:16:39;;;;;;;11.25;4.22;;;14.60;86.60;;;;;;5103350;28;20034;-72
2022/04/06 14:19:43;;;;;;;12.63;6.82;;;14.60;87.60;;;;;;5106948;28;20339;-72
2022/04/06 14:22:48;;;;;;;7.78;4.43;;;14.30;87.00;;;;;;5101148;28;20051;-72
2022/04/06 14:25:53;;;;;;;13.07;5.90;;;14.20;90.10;;;;;;5108972;28;20051;-71
2022/04/06 14:28:57;;;;;;;14.75;7.32;;;14.10;90.30;;;;;;5108957;28;20054;-73
2022/04/06 14:32:01;;;;;;;6.32;4.20;;;14.00;91.60;;;;;;5107475;28;20050;-73
2022/04/06 14:35:06;;;;;;;12.25;5.15;;;13.80;93.00;;;;;;5109539;28;20050;-72
2022/04/06 14:38:10;;;;;;;11.05;4.55;;;13.50;95.30;;;;;;5110551;28;20035;-73
2022/04/06 14:41:15;;;;;;;12.98;5.22;;;12.90;94.60;;;;;;5100900;28;20043;-72
2022/04/06 14:44:20;;;;;;;12.75;5.28;;;12.50;97.30;;;;;;5104977;28;20039;-73
2022/04/06 14:47:25;;;;;;;11.82;4.47;;;12.20;99.40;;;;;;5102053;28;20043;-72
2022/04/06 14:50:29;;;;;;;7.40;4.20;;;11.70;99.90;;;;;;5107629;28;20051;-72
2022/04/06 14:53:33;;;;;;;9.85;5.57;;;11.20;99.90;;;;;;5102386;28;20043;-72
2022/04/06 14:56:38;;;;;;;11.25;5.45;;;10.90;99.90;;;;;;5111545;28;21471;-73
2022/04/06 14:59:42;;;;;;;10.82;5.45;;;10.70;99.90;;;;;;5112747;28;20422;-72
2022/04/06 15:02:46;;;;;;;8.85;4.70;;;10.50;99.90;;;;;;5112888;28;20031;-74
2022/04/06 15:05:51;;;;;;;10.45;4.88;;;10.40;99.90;;;;;;5113833;28;20050;-73
2022/04/06 15:08:55;;;;;;;8.75;4.78;;;10.30;99.90;;;;;;5114388;28;20046;-74
2022/04/06 15:11:59;;;;;;;8.48;4.30;;;10.10;99.90;;;;;;5112768;28;20501;-73
2022/04/06 15:15:04;;;;;;;9.35;4.93;;;9.90;99.90;;;;;;5112767;28;20051;-73
2022/04/06 15:18:08;;;;;;;11.18;5.07;;;9.70;99.90;;;;;;5111760;28;20074;-73
2022/04/06 15:21:12;;;;;;;12.65;6.40;;;9.60;99.90;;;;;;5112157;28;20398;-74
2022/04/06 15:24:16;;;;;;;10.68;5.55;;;9.50;99.90;;;;;;5112309;28;20046;-74
2022/04/06 15:27:20;;;;;;;9.38;5.53;;;9.40;99.90;;;;;;5111811;28;20042;-72
2022/04/06 15:30:25;;;;;;;10.00;6.25;;;9.40;99.90;;;;;;5112297;28;20063;-74
2022/04/06 15:33:29;;;;;;;10.45;5.95;;;9.20;99.90;;;;;;5111137;28;20042;-73
2022/04/06 15:39:57;;;;;;;;;;;8.70;99.90;;;;;;5112212;28;20032;-73
2022/04/06 15:43:01;;;;;;;15.48;6.45;;;8.70;99.90;;;;;;5112323;28;19915;-73
2022/04/06 15:46:05;;;;;;;10.70;6.82;;;8.60;99.90;;;;;;5111534;28;20058;-73
2022/04/06 15:49:09;;;;;;;13.27;6.53;;;8.50;99.90;;;;;;5111839;28;20386;-72
2022/04/06 15:52:14;;;;;;;13.75;7.15;;;8.40;99.90;;;;;;5111708;28;20043;-73
2022/04/06 15:55:18;;;;;;;13.02;7.60;;;8.30;99.90;;;;;;5111703;28;20047;-73
2022/04/06 15:58:22;;;;;;;17.63;8.48;;;8.20;99.90;;;;;;5110996;28;20046;-75
2022/04/06 16:01:26;;;;;;;22.67;9.63;;;8.20;99.90;;;;;;5110948;28;20504;-74
2022/04/06 16:04:30;;;;;;;14.80;9.40;;;8.00;99.90;;;;;;5111072;28;20386;-74
2022/04/06 16:07:35;;;;;;;17.45;8.95;;;8.00;99.90;;;;;;5111071;28;20043;-74
2022/04/06 16:10:40;;;;;;;13.93;7.45;;;7.90;99.90;;;;;;5111488;28;20398;-74
2022/04/06 16:13:44;;;;;;;15.52;9.40;;;7.90;99.90;;;;;;5111057;28;20509;-75
2022/04/06 16:16:48;;;;;;;19.25;9.30;;;7.90;99.90;;;;;;5110571;28;20050;-75
2022/04/06 16:19:52;;;;;;;12.60;8.73;;;7.90;99.90;;;;;;5110859;28;20038;-75
2022/04/06 16:22:58;;;;;;;19.88;9.30;;;7.90;99.90;;;;;;5110765;28;20058;-75
2022/04/06 16:26:02;;;;;;;15.05;8.40;;;7.90;99.90;;;;;;5110723;28;20493;-74